createdAt,value
2017-08-29T00:02:26.469Z,95994
2017-08-29T00:04:56.044Z,95997
2017-08-29T00:07:25.997Z,96011
2017-08-29T00:09:57.712Z,95996
2017-08-29T00:12:26.875Z,95999
2017-08-29T00:14:57.444Z,96042
2017-08-29T00:17:26.902Z,95997
2017-08-29T00:19:56.765Z,96039
2017-08-29T00:22:26.639Z,95997
2017-08-29T00:24:57.314Z,96003
2017-08-29T00:27:26.669Z,96002
2017-08-29T00:29:56.242Z,96063
2017-08-29T00:32:26.944Z,95999
2017-08-29T00:34:57.599Z,96002
2017-08-29T00:37:27.378Z,95991
2017-08-29T00:39:57.333Z,96036
2017-08-29T00:42:27.323Z,96012
2017-08-29T00:44:57.086Z,95991
2017-08-29T00:47:26.728Z,95999
2017-08-29T00:49:55.961Z,96069
2017-08-29T00:52:25.836Z,95987
2017-08-29T00:54:55.494Z,95991
2017-08-29T00:57:25.633Z,95997
2017-08-29T00:59:55.917Z,95988
2017-08-29T01:02:25.309Z,95994
2017-08-29T01:04:54.649Z,95998
2017-08-29T01:07:25.073Z,95990
2017-08-29T01:09:55.089Z,95993
2017-08-29T01:12:28.332Z,95988
2017-08-29T01:14:58.079Z,96029
2017-08-29T01:17:27.699Z,95980
2017-08-29T01:19:57.020Z,95985
2017-08-29T01:22:26.564Z,95974
2017-08-29T01:24:57.654Z,95980
2017-08-29T01:27:27.532Z,96036
2017-08-29T01:29:58.048Z,95971
2017-08-29T01:32:31.003Z,95976
2017-08-29T01:35:01.013Z,95970
2017-08-29T01:37:31.968Z,96029
2017-08-29T01:40:12.039Z,95962
2017-08-29T01:42:42.212Z,95957
2017-08-29T01:45:12.012Z,95950
2017-08-29T01:47:42.098Z,95950
2017-08-29T01:50:13.063Z,95946
2017-08-29T01:52:42.352Z,95620
2017-08-29T01:55:12.134Z,95991
2017-08-29T01:57:42.449Z,95936
2017-08-29T02:00:11.745Z,95934
2017-08-29T02:02:44.982Z,95941
2017-08-29T02:05:14.935Z,95926
2017-08-29T02:07:45.037Z,95927
2017-08-29T02:10:15.127Z,95920
2017-08-29T02:12:45.856Z,95711
2017-08-29T02:15:15.676Z,95923
2017-08-29T02:17:45.393Z,95940
2017-08-29T02:20:16.437Z,95919
2017-08-29T02:22:50.481Z,96005
2017-08-29T02:25:20.521Z,95941
2017-08-29T02:27:49.650Z,95918
2017-08-29T02:30:19.647Z,95912
2017-08-29T02:32:49.732Z,95914
2017-08-29T02:35:20.856Z,95948
2017-08-29T02:37:52.438Z,95591
2017-08-29T02:40:23.200Z,95907
2017-08-29T02:42:53.549Z,95913
2017-08-29T02:45:28.136Z,95914
2017-08-29T02:47:58.311Z,95596
2017-08-29T02:50:29.660Z,95921
2017-08-29T02:53:01.477Z,95934
2017-08-29T02:55:39.606Z,95912
2017-08-29T02:58:11.376Z,95614
2017-08-29T03:00:40.872Z,95907
2017-08-29T03:03:10.878Z,95590
2017-08-29T03:05:41.548Z,95913
2017-08-29T03:08:12.310Z,96058
2017-08-29T03:10:42.683Z,95908
2017-08-29T03:13:12.783Z,95900
2017-08-29T03:15:45.892Z,95904
2017-08-29T03:18:18.290Z,95897
2017-08-29T03:20:51.478Z,95954
2017-08-29T03:23:23.971Z,95899
2017-08-29T03:25:58.884Z,95544
2017-08-29T03:28:28.583Z,95899
2017-08-29T03:30:59.191Z,95951
2017-08-29T03:33:32.372Z,95893
2017-08-29T03:36:02.315Z,95893
2017-08-29T03:38:32.438Z,95906
2017-08-29T03:41:01.697Z,95897
2017-08-29T03:43:31.340Z,96006
2017-08-29T03:46:00.962Z,95904
2017-08-29T03:48:30.775Z,95894
2017-08-29T03:51:01.592Z,95909
2017-08-29T03:53:32.431Z,95888
2017-08-29T03:56:02.173Z,95890
2017-08-29T03:58:31.823Z,95891
2017-08-29T04:01:01.342Z,95915
2017-08-29T04:03:30.551Z,95893
2017-08-29T04:06:00.004Z,95890
2017-08-29T04:08:29.777Z,95893
2017-08-29T04:10:59.078Z,95906
2017-08-29T04:13:28.306Z,95889
2017-08-29T04:15:57.639Z,95886
2017-08-29T04:18:26.929Z,95888
2017-08-29T04:20:56.094Z,95918
2017-08-29T04:23:25.165Z,95896
2017-08-29T04:25:54.388Z,95901
2017-08-29T04:28:23.557Z,95895
2017-08-29T04:30:52.747Z,95904
2017-08-29T04:33:22.039Z,95897
2017-08-29T04:35:51.175Z,95905
2017-08-29T04:38:20.521Z,95908
2017-08-29T04:40:49.850Z,95901
2017-08-29T04:43:19.310Z,95902
2017-08-29T04:45:49.135Z,95899
2017-08-29T04:48:18.436Z,95897
2017-08-29T04:50:47.568Z,95901
2017-08-29T04:53:16.894Z,95904
2017-08-29T04:55:46.008Z,95212
2017-08-29T04:58:15.101Z,96036
2017-08-29T05:00:44.340Z,95897
2017-08-29T05:03:13.491Z,95898
2017-08-29T05:15:40.437Z,95904
2017-08-29T05:18:17.859Z,95997
2017-08-29T05:26:16.276Z,95907
2017-08-29T05:28:53.050Z,95638
2017-08-29T05:31:24.332Z,95912
2017-08-29T05:33:53.553Z,95912
2017-08-29T05:36:22.587Z,95916
2017-08-29T05:38:51.976Z,95910
2017-08-29T05:41:21.143Z,95908
2017-08-29T05:43:50.273Z,95909
2017-08-29T05:46:19.226Z,95980
2017-08-29T05:48:48.207Z,95907
2017-08-29T05:51:17.186Z,95906
2017-08-29T05:53:46.165Z,95911
2017-08-29T05:56:15.225Z,95908
2017-08-29T05:58:46.538Z,95910
2017-08-29T06:01:16.125Z,95909
2017-08-29T06:03:46.665Z,95904
2017-08-29T06:06:17.022Z,95906
2017-08-29T06:08:47.137Z,96007
2017-08-29T06:11:16.841Z,95911
2017-08-29T06:13:50.557Z,95922
2017-08-29T06:16:22.316Z,95913
2017-08-29T06:18:52.526Z,95911
2017-08-29T06:21:24.303Z,95918
2017-08-29T06:23:57.567Z,95928
2017-08-29T06:38:38.536Z,95906
2017-08-29T06:41:40.002Z,95905
2017-08-29T06:57:04.677Z,95902
2017-08-29T07:00:08.998Z,95891
2017-08-29T07:02:39.023Z,95918
2017-08-29T07:05:07.988Z,95900
2017-08-29T07:07:46.693Z,95916
2017-08-29T07:10:16.996Z,95934
2017-08-29T07:12:48.586Z,95901
2017-08-29T07:15:18.520Z,95642
2017-08-29T07:17:48.190Z,95903
2017-08-29T07:20:18.228Z,95933
2017-08-29T07:22:47.209Z,95914
2017-08-29T07:25:16.295Z,95916
2017-08-29T07:27:45.305Z,95980
2017-08-29T07:30:14.289Z,96034
2017-08-29T07:32:44.102Z,95999
2017-08-29T07:35:13.067Z,95999
2017-08-29T07:37:42.076Z,95911
2017-08-29T07:40:11.989Z,95903
2017-08-29T07:42:40.995Z,95909
2017-08-29T07:45:09.955Z,95925
2017-08-29T07:47:38.933Z,95917
2017-08-29T07:50:08.634Z,95913
2017-08-29T07:52:38.287Z,95910
2017-08-29T07:55:07.390Z,95919
2017-08-29T07:57:36.382Z,95994
2017-08-29T08:00:05.368Z,95995
2017-08-29T08:02:34.339Z,95944
2017-08-29T08:05:03.313Z,95916
2017-08-29T08:07:32.317Z,95914
2017-08-29T08:10:01.306Z,95917
2017-08-29T08:12:30.263Z,95913
2017-08-29T08:14:59.230Z,95916
2017-08-29T08:17:28.236Z,95990
2017-08-29T08:19:58.319Z,96017
2017-08-29T08:22:27.277Z,95916
2017-08-29T08:24:56.280Z,95919
2017-08-29T08:27:25.335Z,95910
2017-08-29T08:29:54.354Z,95919
2017-08-29T08:32:23.369Z,95916
2017-08-29T08:34:52.331Z,95914
2017-08-29T08:37:21.291Z,95910
2017-08-29T08:39:50.275Z,95979
2017-08-29T08:42:19.275Z,95942
2017-08-29T08:44:48.274Z,95954
2017-08-29T08:47:17.235Z,96029
2017-08-29T08:49:46.198Z,95922
2017-08-29T08:52:15.195Z,95916
2017-08-29T08:54:44.163Z,95916
2017-08-29T08:57:13.132Z,95687
2017-08-29T08:59:42.136Z,95950
2017-08-29T09:02:11.104Z,95925
2017-08-29T09:04:40.067Z,95929
2017-08-29T09:07:09.080Z,95920
2017-08-29T09:09:38.053Z,95921
2017-08-29T09:12:07.006Z,95923
2017-08-29T09:14:36.007Z,95926
2017-08-29T09:17:04.972Z,95932
2017-08-29T09:19:33.967Z,95940
2017-08-29T09:22:02.934Z,95740
2017-08-29T09:24:31.900Z,95926
2017-08-29T09:27:00.898Z,95926
2017-08-29T09:29:29.890Z,95928
2017-08-29T09:31:58.836Z,95925
2017-08-29T09:34:27.800Z,95948
2017-08-29T09:36:56.782Z,95927
2017-08-29T09:39:25.774Z,95919
2017-08-29T09:41:54.759Z,95919
2017-08-29T09:44:23.726Z,95918
2017-08-29T09:46:52.684Z,95917
2017-08-29T09:49:21.651Z,95709
2017-08-29T09:51:50.671Z,95919
2017-08-29T09:54:19.636Z,96010
2017-08-29T09:56:48.623Z,95898
2017-08-29T09:59:17.625Z,95897
2017-08-29T10:01:46.622Z,95916
2017-08-29T10:04:15.603Z,95938
2017-08-29T10:06:44.574Z,95908
2017-08-29T10:09:13.552Z,95907
2017-08-29T10:11:42.519Z,95902
2017-08-29T10:14:11.498Z,96014
2017-08-29T10:16:40.518Z,95960
2017-08-29T10:19:09.494Z,95727
2017-08-29T10:21:38.453Z,95907
2017-08-29T10:24:07.440Z,95901
2017-08-29T10:26:36.435Z,95948
2017-08-29T10:29:05.447Z,95899
2017-08-29T10:31:34.403Z,95962
2017-08-29T10:34:03.393Z,95901
2017-08-29T10:36:32.338Z,95896
2017-08-29T10:39:01.295Z,95899
2017-08-29T10:41:30.271Z,95903
2017-08-29T10:43:59.248Z,95892
2017-08-29T10:46:28.195Z,95901
2017-08-29T10:48:57.183Z,95961
2017-08-29T10:51:26.154Z,95975
2017-08-29T10:53:55.135Z,95893
2017-08-29T10:56:24.088Z,95891
2017-08-29T10:58:53.036Z,95889
2017-08-29T11:01:22.039Z,95888
2017-08-29T11:03:51.013Z,95914
2017-08-29T11:06:19.984Z,95896
2017-08-29T11:08:48.941Z,95889
2017-08-29T11:11:17.893Z,95885
2017-08-29T11:13:46.868Z,95880
2017-08-29T11:16:15.815Z,95878
2017-08-29T11:18:44.788Z,95875
2017-08-29T11:21:13.761Z,95916
2017-08-29T11:23:42.726Z,95883
2017-08-29T11:26:11.681Z,95878
2017-08-29T11:28:40.648Z,95697
2017-08-29T11:31:09.640Z,95876
2017-08-29T11:33:38.607Z,95917
2017-08-29T11:36:07.573Z,95865
2017-08-29T11:38:36.635Z,95880
2017-08-29T11:41:05.732Z,95865
2017-08-29T11:43:34.712Z,95684
2017-08-29T11:46:03.681Z,95899
2017-08-29T11:48:32.661Z,95869
2017-08-29T11:51:01.602Z,95873
2017-08-29T11:53:30.565Z,95690
2017-08-29T11:55:59.553Z,95862
2017-08-29T11:58:28.526Z,95868
2017-08-29T12:00:57.485Z,95863
2017-08-29T12:03:26.448Z,95860
2017-08-29T12:05:55.420Z,95919
2017-08-29T12:08:24.383Z,95860
2017-08-29T12:10:53.331Z,95854
2017-08-29T12:13:22.291Z,95898
2017-08-29T12:15:51.264Z,95857
2017-08-29T12:18:20.207Z,95855
2017-08-29T12:20:49.172Z,95898
2017-08-29T12:23:18.151Z,95850
2017-08-29T12:25:47.131Z,95845
2017-08-29T12:28:16.122Z,95846
2017-08-29T12:30:45.062Z,95849
2017-08-29T12:33:14.041Z,95934
2017-08-29T12:35:42.999Z,95847
2017-08-29T12:38:16.149Z,95846
2017-08-29T12:40:45.104Z,95891
2017-08-29T12:43:14.076Z,95843
2017-08-29T12:45:43.027Z,95836
2017-08-29T12:48:11.982Z,95663
2017-08-29T12:50:40.959Z,95828
2017-08-29T12:53:09.939Z,95823
2017-08-29T12:55:38.893Z,95822
2017-08-29T12:58:07.901Z,95873
2017-08-29T13:00:36.862Z,95733
2017-08-29T13:03:05.811Z,95852
2017-08-29T13:05:34.816Z,95811
2017-08-29T13:08:03.796Z,95811
2017-08-29T13:10:32.742Z,95811
2017-08-29T13:13:01.736Z,95649
2017-08-29T13:15:30.713Z,95810
2017-08-29T13:17:59.662Z,95836
2017-08-29T13:20:28.653Z,95814
2017-08-29T13:22:57.610Z,95814
2017-08-29T13:25:28.301Z,95812
2017-08-29T13:27:57.722Z,95804
2017-08-29T13:30:26.695Z,95849
2017-08-29T13:32:55.700Z,95799
2017-08-29T13:35:24.719Z,95803
2017-08-29T13:37:53.709Z,95727
2017-08-29T13:40:22.692Z,95576
2017-08-29T13:42:51.647Z,95866
2017-08-29T13:45:20.595Z,95790
2017-08-29T13:47:49.547Z,95691
2017-08-29T13:50:18.575Z,95792
2017-08-29T13:52:47.625Z,95789
2017-08-29T13:55:16.571Z,95786
2017-08-29T13:57:45.523Z,95781
2017-08-29T14:00:14.528Z,95800
2017-08-29T14:02:43.513Z,95817
2017-08-29T14:05:12.488Z,95777
2017-08-29T14:07:41.456Z,95777
2017-08-29T14:10:10.395Z,95776
2017-08-29T14:12:39.364Z,95837
2017-08-29T14:15:08.320Z,95777
2017-08-29T14:17:37.361Z,95780
2017-08-29T14:20:06.333Z,95775
2017-08-29T14:22:35.276Z,95778
2017-08-29T14:25:04.231Z,95684
2017-08-29T14:27:33.189Z,95783
2017-08-29T14:30:02.160Z,95774
2017-08-29T14:32:31.111Z,95778
2017-08-29T14:35:00.148Z,95790
2017-08-29T14:37:29.145Z,95777
2017-08-29T14:39:58.091Z,95778
2017-08-29T14:42:27.100Z,95793
2017-08-29T14:44:56.063Z,95813
2017-08-29T14:47:42.659Z,95768
2017-08-29T14:50:11.622Z,95760
2017-08-29T14:52:40.568Z,95755
2017-08-29T14:55:09.539Z,95799
2017-08-29T14:57:38.488Z,95751
2017-08-29T15:00:07.463Z,95752
2017-08-29T15:02:36.433Z,95753
2017-08-29T15:05:05.412Z,95755
2017-08-29T15:07:34.368Z,95749
2017-08-29T15:10:03.332Z,95752
2017-08-29T15:12:32.382Z,95679
2017-08-29T15:15:01.355Z,95747
2017-08-29T15:17:30.300Z,95744
2017-08-29T15:19:59.288Z,95820
2017-08-29T15:22:28.263Z,95777
2017-08-29T15:24:57.272Z,95738
2017-08-29T15:27:26.220Z,95775
2017-08-29T15:29:55.166Z,95732
2017-08-29T15:32:24.127Z,95530
2017-08-29T15:34:53.088Z,95726
2017-08-29T15:37:22.087Z,95726
2017-08-29T15:39:51.059Z,95727
2017-08-29T15:42:20.027Z,95509
2017-08-29T15:44:48.973Z,95820
2017-08-29T15:47:17.923Z,95721
2017-08-29T15:49:46.906Z,95735
2017-08-29T15:52:15.971Z,95733
2017-08-29T15:54:44.994Z,95729
2017-08-29T15:57:13.967Z,95809
2017-08-29T15:59:42.921Z,95750
2017-08-29T16:02:12.067Z,95720
2017-08-29T16:04:41.022Z,95733
2017-08-29T16:07:09.973Z,95715
2017-08-29T16:09:39.040Z,95499
2017-08-29T16:12:08.004Z,95707
2017-08-29T16:14:37.052Z,95461
2017-08-29T16:17:06.017Z,95466
2017-08-29T16:19:35.194Z,95771
2017-08-29T16:22:04.196Z,95702
2017-08-29T16:24:33.184Z,95706
2017-08-29T16:27:02.170Z,95689
2017-08-29T16:29:31.127Z,95690
2017-08-29T16:32:00.085Z,95692
2017-08-29T16:34:29.052Z,95809
2017-08-29T16:36:58.008Z,95693
2017-08-29T16:39:27.003Z,95690
2017-08-29T16:41:55.953Z,95689
2017-08-29T16:44:24.911Z,95759
2017-08-29T16:46:53.873Z,95692
2017-08-29T16:49:22.825Z,95687
2017-08-29T16:51:51.809Z,95790
2017-08-29T16:54:20.764Z,95720
2017-08-29T16:56:49.758Z,95679
2017-08-29T16:59:18.694Z,95684
2017-08-29T17:01:47.642Z,95446
2017-08-29T17:04:16.623Z,95680
2017-08-29T17:06:45.624Z,95677
2017-08-29T17:09:14.558Z,95684
2017-08-29T17:11:43.510Z,95786
2017-08-29T17:14:12.507Z,95685
2017-08-29T17:16:41.481Z,95681
2017-08-29T17:19:10.434Z,95685
2017-08-29T17:21:39.378Z,95699
2017-08-29T17:24:08.360Z,95683
2017-08-29T17:26:37.311Z,95686
2017-08-29T17:29:06.300Z,95424
2017-08-29T17:31:35.299Z,95767
2017-08-29T17:34:04.256Z,95339
2017-08-29T17:36:33.223Z,95696
2017-08-29T17:39:02.226Z,95696
2017-08-29T17:41:31.158Z,95695
2017-08-29T17:44:00.139Z,95402
2017-08-29T17:46:29.149Z,95780
2017-08-29T17:48:58.136Z,95412
2017-08-29T17:51:27.106Z,95718
2017-08-29T17:53:56.083Z,95703
2017-08-29T17:56:25.057Z,95696
2017-08-29T17:58:54.000Z,95698
2017-08-29T18:01:22.975Z,95807
2017-08-29T18:03:51.929Z,95700
2017-08-29T18:06:20.900Z,95692
2017-08-29T18:08:49.847Z,95694
2017-08-29T18:11:18.811Z,95692
2017-08-29T18:13:47.767Z,95696
2017-08-29T18:16:16.730Z,95694
2017-08-29T18:18:45.708Z,95688
2017-08-29T18:21:14.671Z,95695
2017-08-29T18:23:43.630Z,95691
2017-08-29T18:26:12.590Z,95406
2017-08-29T18:28:41.572Z,95699
2017-08-29T18:31:10.559Z,95695
2017-08-29T18:33:39.516Z,95698
2017-08-29T18:36:08.463Z,95703
2017-08-29T18:38:37.435Z,95721
2017-08-29T18:41:06.384Z,95708
2017-08-29T18:43:35.351Z,95709
2017-08-29T18:46:04.308Z,95795
2017-08-29T18:48:33.263Z,95708
2017-08-29T18:51:02.226Z,95709
2017-08-29T18:53:31.211Z,95826
2017-08-29T18:56:00.191Z,95734
2017-08-29T18:58:29.184Z,95711
2017-08-29T19:00:58.192Z,95725
2017-08-29T19:03:27.204Z,95716
2017-08-29T19:05:56.196Z,95716
2017-08-29T19:08:27.113Z,95423
2017-08-29T19:10:56.469Z,95761
2017-08-29T19:13:25.429Z,95722
2017-08-29T19:15:54.397Z,95740
2017-08-29T19:18:24.814Z,95717
2017-08-29T19:28:26.321Z,95732
2017-08-29T19:30:55.321Z,95849
2017-08-29T19:33:24.327Z,95753
2017-08-29T19:36:22.196Z,95442
2017-08-29T19:39:15.641Z,95550
2017-08-29T19:41:50.288Z,95740
2017-08-29T19:44:19.263Z,95577
2017-08-29T19:46:48.218Z,95790
2017-08-29T19:49:17.206Z,95729
2017-08-29T19:51:55.319Z,95736
2017-08-29T19:54:24.357Z,95726
2017-08-29T19:56:53.424Z,95730
2017-08-29T19:59:22.482Z,95725
2017-08-29T20:01:53.817Z,95730
2017-08-29T20:04:36.435Z,95733
2017-08-29T20:07:13.325Z,95733
2017-08-29T20:10:00.389Z,95731
2017-08-29T20:12:29.402Z,95424
2017-08-29T20:14:58.405Z,95756
2017-08-29T20:17:27.417Z,95733
2017-08-29T20:19:56.438Z,95724
2017-08-29T20:22:25.719Z,95732
2017-08-29T20:25:01.294Z,95728
2017-08-29T20:27:34.291Z,95731
2017-08-29T20:30:03.825Z,95729
2017-08-29T20:32:33.732Z,95725
2017-08-29T20:35:03.712Z,95805
2017-08-29T20:37:32.828Z,95725
2017-08-29T20:40:01.860Z,95729
2017-08-29T20:42:30.833Z,95782
2017-08-29T20:44:59.804Z,95729
2017-08-29T20:47:28.892Z,95720
2017-08-29T20:49:57.839Z,95723
2017-08-29T20:52:26.819Z,95717
2017-08-29T20:54:56.019Z,95732
2017-08-29T20:57:24.971Z,95870
2017-08-29T20:59:53.981Z,95725
2017-08-29T21:02:22.943Z,95724
2017-08-29T21:04:52.297Z,95727
2017-08-29T21:07:21.243Z,95728
2017-08-29T21:09:50.243Z,95735
2017-08-29T21:12:19.191Z,95447
2017-08-29T21:14:48.364Z,95735
2017-08-29T21:17:17.337Z,95774
2017-08-29T21:19:46.299Z,95734
2017-08-29T21:22:15.275Z,95728
2017-08-29T21:24:44.232Z,95733
2017-08-29T21:27:13.214Z,95766
2017-08-29T21:29:42.166Z,95789
2017-08-29T21:32:11.247Z,95735
2017-08-29T21:34:40.222Z,95732
2017-08-29T21:37:09.174Z,95729
2017-08-29T21:39:38.155Z,95736
2017-08-29T21:42:07.131Z,95738
2017-08-29T21:44:36.114Z,95739
2017-08-29T21:47:05.093Z,95731
2017-08-29T21:49:34.032Z,95422
2017-08-29T21:52:02.992Z,95739
2017-08-29T21:54:31.930Z,95738
2017-08-29T21:57:00.913Z,95777
2017-08-29T21:59:29.868Z,95747
2017-08-29T22:01:58.815Z,95746
2017-08-29T22:04:27.787Z,95431
2017-08-29T22:06:56.743Z,95740
2017-08-29T22:09:25.700Z,95738
2017-08-29T22:11:54.658Z,95733
2017-08-29T22:14:23.640Z,95736
2017-08-29T22:16:52.610Z,95730
2017-08-29T22:19:21.579Z,95732
2017-08-29T22:21:50.524Z,95726
2017-08-29T22:24:19.487Z,95733
2017-08-29T22:26:48.440Z,95729
2017-08-29T22:29:17.381Z,95776
2017-08-29T22:31:46.343Z,95735
2017-08-29T22:34:15.291Z,95725
2017-08-29T22:36:44.254Z,95730
2017-08-29T22:39:13.221Z,95728
2017-08-29T22:41:42.176Z,95728
2017-08-29T22:44:11.152Z,95770
2017-08-29T22:46:40.129Z,95720
2017-08-29T22:49:09.080Z,95727
2017-08-29T22:51:38.036Z,95722
2017-08-29T22:54:06.991Z,95724
2017-08-29T22:56:35.950Z,95730
2017-08-29T22:59:04.896Z,95722
2017-08-29T23:01:33.883Z,95715
2017-08-29T23:04:02.857Z,95717
2017-08-29T23:06:31.865Z,95724
2017-08-29T23:09:00.812Z,95722
2017-08-29T23:11:29.763Z,95725
2017-08-29T23:13:58.742Z,95728
2017-08-29T23:16:27.686Z,95721
2017-08-29T23:18:56.654Z,95723
2017-08-29T23:21:25.988Z,95765
2017-08-29T23:23:54.939Z,95714
2017-08-29T23:26:23.896Z,95738
2017-08-29T23:28:52.852Z,95718
2017-08-29T23:31:21.806Z,95704
2017-08-29T23:33:50.767Z,95703
2017-08-29T23:36:19.731Z,95701
2017-08-29T23:38:48.683Z,95699
2017-08-29T23:41:17.639Z,95702
2017-08-29T23:43:46.606Z,95695
2017-08-29T23:46:15.902Z,95719
2017-08-29T23:48:44.961Z,95695
2017-08-29T23:51:13.918Z,95692
2017-08-29T23:53:42.883Z,95692
2017-08-29T23:56:11.831Z,95698
2017-08-29T23:58:40.795Z,95688
